createdAt,value
2019-04-25T00:03:02.900Z,5.23
2019-04-25T00:08:05.732Z,5.27
2019-04-25T00:13:08.614Z,4.90
2019-04-25T00:18:13.921Z,5.70
2019-04-25T00:23:17.811Z,5.20
2019-04-25T00:28:21.661Z,4.43
2019-04-25T00:33:24.770Z,5.47
2019-04-25T00:38:27.546Z,5.40
2019-04-25T00:43:31.483Z,5.33
2019-04-25T00:48:34.327Z,4.87
2019-04-25T00:53:37.043Z,4.90
2019-04-25T00:58:53.185Z,5.77
2019-04-25T01:03:56.801Z,5.27
2019-04-25T01:09:04.949Z,5.10
2019-04-25T01:14:11.885Z,4.90
2019-04-25T01:19:34.357Z,5.63
2019-04-25T01:24:41.682Z,5.27
2019-04-25T01:29:51.932Z,4.80
2019-04-25T01:35:04.700Z,5.40
2019-04-25T01:40:35.336Z,5.77
2019-04-25T01:45:40.265Z,4.83
2019-04-25T01:50:43.784Z,5.00
2019-04-25T01:55:56.167Z,6.30
2019-04-25T02:00:54.575Z,5.47
2019-04-25T02:05:57.301Z,5.70
2019-04-25T02:11:24.037Z,5.63
2019-04-25T02:16:26.840Z,5.97
2019-04-25T02:21:29.553Z,5.33
2019-04-25T02:26:34.055Z,5.83
2019-04-25T02:31:36.947Z,5.23
2019-04-25T02:36:39.761Z,5.43
2019-04-25T02:41:44.510Z,5.70
2019-04-25T02:47:07.875Z,5.77
2019-04-25T02:52:34.462Z,5.97
2019-04-25T02:57:37.317Z,6.30
2019-04-25T03:02:40.002Z,5.80
2019-04-25T03:07:44.621Z,5.80
2019-04-25T03:12:47.525Z,5.17
2019-04-25T03:17:50.259Z,5.40
2019-04-25T03:22:54.686Z,5.47
2019-04-25T03:27:57.539Z,5.97
2019-04-25T03:33:01.019Z,6.10
2019-04-25T03:38:05.416Z,5.10
2019-04-25T03:43:08.981Z,6.20
2019-04-25T03:48:11.718Z,5.37
2019-04-25T03:53:14.496Z,5.23
2019-04-25T03:58:17.323Z,6.60
2019-04-25T04:03:20.088Z,5.53
2019-04-25T04:08:24.308Z,5.83
2019-04-25T04:13:27.179Z,5.73
2019-04-25T04:18:49.845Z,5.67
2019-04-25T04:24:11.769Z,6.33
2019-04-25T04:29:15.295Z,6.50
2019-04-25T04:34:17.983Z,5.27
2019-04-25T04:39:20.772Z,5.10
2019-04-25T04:44:24.112Z,6.50
2019-04-25T04:49:26.976Z,6.53
2019-04-25T04:54:29.749Z,6.87
2019-04-25T04:59:33.805Z,6.03
2019-04-25T05:04:56.153Z,5.50
2019-04-25T05:09:58.844Z,5.83
2019-04-25T05:15:01.678Z,6.43
2019-04-25T05:20:04.738Z,6.37
2019-04-25T05:25:07.502Z,5.70
2019-04-25T05:30:15.685Z,5.37
2019-04-25T05:35:18.014Z,5.97
2019-04-25T05:40:20.712Z,6.50
2019-04-25T05:45:25.764Z,5.77
2019-04-25T05:50:31.852Z,6.30
2019-04-25T05:55:39.841Z,5.63
2019-04-25T06:00:44.018Z,6.47
2019-04-25T06:05:46.807Z,5.27
2019-04-25T06:11:08.997Z,6.08
2019-04-25T06:16:17.793Z,6.10
2019-04-25T06:21:21.426Z,6.08
2019-04-25T06:26:34.104Z,5.87
2019-04-25T06:31:29.801Z,5.90
2019-04-25T06:36:35.205Z,5.45
2019-04-25T06:41:37.204Z,6.20
2019-04-25T06:47:05.229Z,5.35
2019-04-25T06:52:07.905Z,6.20
2019-04-25T06:57:10.729Z,5.92
2019-04-25T07:02:13.979Z,5.05
2019-04-25T07:07:16.873Z,5.47
2019-04-25T07:12:19.604Z,6.03
2019-04-25T07:17:22.248Z,6.00
2019-04-25T07:22:26.018Z,5.75
2019-04-25T07:27:48.742Z,5.35
2019-04-25T07:32:55.922Z,5.60
2019-04-25T07:37:58.766Z,7.05
2019-04-25T07:43:03.242Z,5.10
2019-04-25T07:48:06.541Z,5.53
2019-04-25T07:53:09.226Z,5.58
2019-04-25T07:58:12.145Z,5.60
2019-04-25T08:03:15.483Z,5.33
2019-04-25T08:08:18.340Z,6.15
2019-04-25T08:13:21.530Z,5.45
2019-04-25T08:18:25.455Z,6.42
2019-04-25T08:23:30.727Z,6.12
2019-04-25T08:28:34.449Z,5.20
2019-04-25T08:33:37.469Z,5.75
2019-04-25T08:38:40.342Z,5.92
2019-04-25T08:43:45.030Z,6.37
2019-04-25T08:49:06.427Z,5.58
2019-04-25T08:54:20.086Z,5.28
2019-04-25T08:59:57.328Z,6.40
2019-04-25T09:05:18.426Z,6.37
2019-04-25T09:10:21.254Z,6.40
2019-04-25T09:15:24.381Z,5.90
2019-04-25T09:20:27.108Z,6.20
2019-04-25T09:25:29.889Z,6.20
2019-04-25T09:30:34.962Z,6.15
2019-04-25T09:35:37.635Z,6.47
2019-04-25T09:40:40.431Z,6.70
2019-04-25T09:46:16.230Z,6.22
2019-04-25T09:51:23.575Z,6.55
2019-04-25T09:56:31.033Z,6.22
2019-04-25T10:01:34.292Z,6.22
2019-04-25T10:06:37.313Z,6.08
2019-04-25T10:11:40.348Z,6.47
2019-04-25T10:16:44.493Z,5.90
2019-04-25T10:21:47.780Z,6.33
2019-04-25T10:26:50.513Z,6.40
2019-04-25T10:31:55.277Z,6.42
2019-04-25T10:36:57.746Z,6.45
2019-04-25T10:42:00.518Z,6.22
2019-04-25T10:47:03.729Z,6.65
2019-04-25T10:52:08.396Z,6.35
2019-04-25T10:57:11.337Z,6.40
2019-04-25T11:02:15.239Z,6.05
2019-04-25T11:07:18.755Z,6.20
2019-04-25T11:12:23.341Z,5.30
2019-04-25T11:17:25.992Z,6.17
2019-04-25T11:22:28.708Z,5.92
2019-04-25T11:27:31.568Z,6.15
2019-04-25T11:32:34.193Z,6.80
2019-04-25T11:37:36.984Z,6.78
2019-04-25T11:42:39.742Z,5.78
2019-04-25T11:47:43.374Z,5.70
2019-04-25T11:52:47.223Z,6.28
2019-04-25T11:57:51.303Z,5.97
2019-04-25T12:02:56.087Z,9.23
2019-04-25T12:07:58.902Z,5.95
2019-04-25T12:13:01.670Z,6.03
2019-04-25T12:18:04.713Z,6.72
2019-04-25T12:23:10.356Z,5.97
2019-04-25T12:28:12.027Z,5.78
2019-04-25T12:33:21.129Z,6.87
2019-04-25T12:38:20.439Z,6.05
2019-04-25T12:43:25.133Z,6.33
2019-04-25T12:48:27.965Z,5.97
2019-04-25T12:53:30.671Z,6.25
2019-04-25T12:58:33.552Z,6.28
2019-04-25T13:03:36.356Z,7.08
2019-04-25T13:08:39.170Z,6.95
2019-04-25T13:13:43.559Z,8.85
2019-04-25T13:18:46.290Z,8.30
2019-04-25T13:23:48.974Z,8.43
2019-04-25T13:29:04.071Z,9.10
2019-04-25T13:34:21.120Z,10.53
2019-04-25T13:39:24.955Z,10.53
2019-04-25T13:44:27.812Z,9.90
2019-04-25T13:49:31.576Z,10.78
2019-04-25T13:54:35.072Z,11.12
2019-04-25T13:59:37.825Z,12.18
2019-04-25T14:04:40.553Z,13.28
2019-04-25T14:09:44.678Z,14.05
2019-04-25T14:14:47.533Z,15.10
2019-04-25T14:20:09.017Z,15.20
2019-04-25T14:25:12.291Z,15.03
2019-04-25T14:30:16.812Z,14.90
2019-04-25T14:35:19.652Z,14.38
2019-04-25T14:40:25.682Z,13.58
2019-04-25T14:45:40.332Z,14.15
2019-04-25T14:50:32.258Z,13.98
2019-04-25T14:55:53.438Z,13.70
2019-04-25T15:00:56.489Z,16.62
2019-04-25T15:05:59.122Z,17.65
2019-04-25T15:11:07.151Z,18.02
2019-04-25T15:16:09.851Z,18.87
2019-04-25T15:21:12.627Z,19.48
2019-04-25T15:26:15.420Z,21.68
2019-04-25T15:31:19.097Z,21.00
2019-04-25T15:36:44.901Z,21.42
2019-04-25T15:41:56.285Z,20.95
2019-04-25T15:47:00.087Z,21.95
2019-04-25T15:52:03.930Z,22.30
2019-04-25T15:57:06.888Z,23.75
2019-04-25T16:02:13.173Z,20.95
2019-04-25T16:07:16.592Z,21.48
2019-04-25T16:12:20.300Z,21.75
2019-04-25T16:17:23.239Z,22.05
2019-04-25T16:22:26.407Z,22.22
2019-04-25T16:27:30.336Z,22.40
2019-04-25T16:32:33.442Z,23.65
2019-04-25T16:37:37.274Z,24.00
2019-04-25T16:42:40.652Z,24.02
2019-04-25T16:47:43.962Z,25.17
2019-04-25T16:52:47.080Z,25.32
2019-04-25T16:57:50.080Z,24.37
2019-04-25T17:02:55.403Z,26.20
2019-04-25T17:07:59.338Z,26.93
2019-04-25T17:13:02.041Z,23.95
2019-04-25T17:18:12.475Z,22.35
2019-04-25T17:23:15.441Z,20.43
2019-04-25T17:28:18.474Z,20.95
2019-04-25T17:33:37.767Z,20.43
2019-04-25T17:38:47.617Z,21.73
2019-04-25T17:43:50.417Z,21.60
2019-04-25T17:48:53.346Z,23.60
2019-04-25T17:53:56.119Z,22.07
2019-04-25T17:58:58.903Z,22.48
2019-04-25T18:04:01.712Z,20.68
2019-04-25T18:09:06.150Z,23.07
2019-04-25T18:14:10.896Z,23.65
2019-04-25T18:19:38.905Z,23.00
2019-04-25T18:24:56.466Z,22.13
2019-04-25T18:29:59.557Z,21.68
2019-04-25T18:35:08.510Z,21.77
2019-04-25T18:40:33.795Z,22.35
2019-04-25T18:45:38.465Z,22.97
2019-04-25T18:50:41.353Z,24.83
2019-04-25T18:55:56.450Z,22.80
2019-04-25T19:01:22.394Z,23.30
2019-04-25T19:06:25.657Z,22.20
2019-04-25T19:11:28.561Z,24.30
2019-04-25T19:16:31.316Z,19.67
2019-04-25T19:21:33.996Z,22.37
2019-04-25T19:26:39.248Z,21.80
2019-04-25T19:31:42.156Z,22.83
2019-04-25T19:36:45.045Z,21.57
2019-04-25T19:42:07.350Z,22.50
2019-04-25T19:47:10.303Z,21.83
2019-04-25T19:52:13.150Z,22.77
2019-04-25T19:57:16.197Z,22.50
2019-04-25T20:02:28.747Z,22.40
2019-04-25T20:07:42.547Z,22.37
2019-04-25T20:12:51.314Z,22.33
2019-04-25T20:17:52.003Z,21.03
2019-04-25T20:22:54.801Z,19.73
2019-04-25T20:27:57.564Z,19.80
2019-04-25T20:33:00.225Z,18.70
2019-04-25T20:38:03.441Z,16.97
2019-04-25T20:43:06.236Z,16.70
2019-04-25T20:48:09.080Z,16.00
2019-04-25T20:53:11.829Z,16.20
2019-04-25T20:58:14.580Z,15.43
2019-04-25T21:03:17.268Z,14.33
2019-04-25T21:08:20.153Z,13.10
2019-04-25T21:13:31.851Z,12.17
2019-04-25T21:18:38.114Z,13.47
2019-04-25T21:23:41.918Z,15.43
2019-04-25T21:28:44.721Z,15.73
2019-04-25T21:33:47.392Z,16.20
2019-04-25T21:39:15.281Z,16.97
2019-04-25T21:44:19.421Z,17.90
2019-04-25T21:49:22.127Z,17.47
2019-04-25T21:54:24.897Z,17.03
2019-04-25T21:59:28.160Z,16.27
2019-04-25T22:04:38.696Z,15.77
2019-04-25T22:09:35.479Z,17.20
2019-04-25T22:14:38.549Z,16.63
2019-04-25T22:19:41.423Z,17.40
2019-04-25T22:24:45.610Z,15.60
2019-04-25T22:29:55.147Z,15.03
2019-04-25T22:35:26.535Z,14.57
2019-04-25T22:40:29.397Z,16.20
2019-04-25T22:45:32.406Z,16.73
2019-04-25T22:50:35.561Z,17.83
2019-04-25T22:55:38.375Z,19.13
2019-04-25T23:00:40.981Z,19.57
2019-04-25T23:05:49.896Z,19.20
2019-04-25T23:10:53.019Z,19.30
2019-04-25T23:15:55.822Z,19.67
2019-04-25T23:20:58.872Z,19.93
2019-04-25T23:26:31.283Z,20.70
2019-04-25T23:31:35.120Z,20.50
2019-04-25T23:36:38.292Z,21.03
2019-04-25T23:41:41.084Z,21.97
2019-04-25T23:46:43.863Z,22.10
2019-04-25T23:51:46.620Z,21.47
2019-04-25T23:56:49.278Z,21.80
